»·PEaware :: AAL214 KPDX-KBOI

AAL214 :: KPDX-KBOI

FLIGHT INFORMATION

Flight Status: Arrived
Operator:
American Airlines
More flights by this operator :: More flights under this callsign
Pilot: Jim V. (20680)
Aircraft: BOEING 737-800
(B738)
More flights by this aircraft type
Origin: KPDX Portland Intl
United States
Destination: KBOI Boise Air Terminal/Gowen
United States
More flights between these airports :: More routes between these airports
Route: TIMEE J15 IMB HOSTS PARMO3
File this flight plan on PilotEdge
Remarks: PBN / A1B1C1D1S1S2 NAV / RNVD1E2A1 DAT / V DOF / 181005 REG / N806SB EET / KZLC0027
Altitude:
(Current/Filed)
31,000ft
Speed:
(Current/Filed)
413kts
Departed: 05-Oct-18 09:41 AM
Arrived: 05-Oct-18 10:28 AM
Distance/Time
Traveled:
298nm/0:47
Distance/Time
To Go:
Arrived

Flight Plot

Page will automatically refresh every two minutes.

Flight plan parsing failed; only flown route is shown


Map Options




Map Legend


Flown Route
Filed Route
Departure Airport
Arrival Airport
Navaid (VOR, NDB)
Fix

Horizontal Profiles

Position Reports

Time Latitude Longitude Heading Altitude Ground
Speed
05-Oct-18 09:29 45.591951 -122.596963 133 25ft 0kts
05-Oct-18 09:30 45.591951 -122.596963 133 25ft 0kts
05-Oct-18 09:31 45.591951 -122.596963 133 25ft 0kts
05-Oct-18 09:32 45.591951 -122.596963 133 25ft 0kts
05-Oct-18 09:33 45.591951 -122.596963 133 25ft 0kts
05-Oct-18 09:34 45.591951 -122.596963 133 25ft 0kts
05-Oct-18 09:35 45.592002 -122.597041 133 25ft 0kts
05-Oct-18 09:36 45.592414 -122.597563 139 26ft 0kts
05-Oct-18 09:37 45.592408 -122.597555 138 26ft 0kts
05-Oct-18 09:38 45.592662 -122.597204 18 26ft 3kts
05-Oct-18 09:39 45.594381 -122.597410 36 27ft 0kts
05-Oct-18 09:40 45.594381 -122.597410 36 27ft 0kts
05-Oct-18 09:41 45.594381 -122.597410 36 27ft 0kts
05-Oct-18 09:42 45.594918 -122.596480 73 27ft 19kts
05-Oct-18 09:43 45.576656 -122.550813 119 1666ft 204kts
05-Oct-18 09:44 45.543958 -122.465401 117 5012ft 267kts
05-Oct-18 09:45 45.502661 -122.373650 130 8888ft 290kts
05-Oct-18 09:46 45.447891 -122.283157 133 12126ft 323kts
05-Oct-18 09:47 45.387648 -122.184130 134 15459ft 344kts
05-Oct-18 09:48 45.323207 -122.078626 134 18499ft 365kts
05-Oct-18 09:49 45.254936 -121.967304 135 21259ft 384kts
05-Oct-18 09:50 45.183251 -121.850889 135 23733ft 403kts
05-Oct-18 09:51 45.108020 -121.729144 134 25963ft 422kts
05-Oct-18 09:52 45.060270 -121.572318 107 27907ft 450kts
05-Oct-18 09:53 45.022745 -121.400779 108 29850ft 464kts
05-Oct-18 09:54 44.983448 -121.227185 108 31172ft 478kts
05-Oct-18 09:55 44.948611 -121.073202 107 31172ft 507kts
05-Oct-18 09:56 44.898960 -120.852187 106 31165ft 509kts
05-Oct-18 09:57 44.863524 -120.693347 106 31160ft 510kts
05-Oct-18 09:58 44.821368 -120.503166 106 31159ft 509kts
05-Oct-18 09:59 44.772852 -120.282455 106 31151ft 509kts
05-Oct-18 10:00 44.738326 -120.124083 106 31157ft 510kts
05-Oct-18 10:01 44.697009 -119.933690 106 31164ft 510kts
05-Oct-18 10:02 44.655942 -119.743299 106 31166ft 510kts
05-Oct-18 10:03 44.603810 -119.559258 113 31168ft 510kts
05-Oct-18 10:04 44.546923 -119.377200 113 31170ft 510kts
05-Oct-18 10:05 44.490907 -119.196258 113 31162ft 510kts
05-Oct-18 10:06 44.434853 -119.014516 113 31164ft 510kts
05-Oct-18 10:07 44.380693 -118.838174 111 31157ft 469kts
05-Oct-18 10:08 44.329197 -118.669494 111 31167ft 475kts
05-Oct-18 10:09 44.277780 -118.500289 113 31179ft 471kts
05-Oct-18 10:10 44.229108 -118.339427 114 28607ft 463kts
05-Oct-18 10:11 44.178135 -118.170098 114 24715ft 480kts
05-Oct-18 10:12 44.127532 -118.001284 114 21017ft 466kts
05-Oct-18 10:13 44.079476 -117.840309 114 17893ft 436kts
05-Oct-18 10:14 44.035064 -117.691033 114 15350ft 405kts
05-Oct-18 10:15 43.993941 -117.551897 114 13057ft 379kts
05-Oct-18 10:16 43.952941 -117.420341 115 11158ft 369kts
05-Oct-18 10:17 43.914131 -117.298686 115 10187ft 322kts
05-Oct-18 10:18 43.880593 -117.193812 115 9631ft 287kts
05-Oct-18 10:19 43.848412 -117.093661 114 8537ft 281kts
05-Oct-18 10:20 43.816844 -116.995959 114 8015ft 282kts
05-Oct-18 10:21 43.784498 -116.896474 113 8009ft 285kts
05-Oct-18 10:22 43.752095 -116.796901 113 8007ft 283kts
05-Oct-18 10:23 43.720796 -116.699425 113 7062ft 272kts
05-Oct-18 10:24 43.690917 -116.606515 112 6309ft 254kts
05-Oct-18 10:25 43.664289 -116.523819 112 5666ft 230kts
05-Oct-18 10:26 43.638699 -116.444736 113 5051ft 222kts
05-Oct-18 10:27 43.614176 -116.372005 115 4854ft 201kts
05-Oct-18 10:28 43.591380 -116.305405 116 3866ft 172kts
05-Oct-18 10:29 43.573493 -116.252848 115 3008ft 143kts
05-Oct-18 10:30 43.564045 -116.224966 95 2849ft 17kts
05-Oct-18 10:31 43.565070 -116.224133 3 2849ft 8kts
05-Oct-18 10:32 43.566280 -116.221644 121 2852ft 17kts
05-Oct-18 10:33 43.566908 -116.219709 31 2852ft 0kts

Navigation Log

Ident Type
Flight plan parsing failed, navigation log unavailable